Strona główna
METAR-TAF:

METAR-TAF

Lotnisko :

Ellsworth Air Force Base

Rapid City / Ellsworth, Dakota Południowa, Stany Zjednoczone

Szerokość geograficzna: 44-09N, Długość geograficzna: 103-06W, wysokość: 999 m

Aktualna obserwacja pogody

Raport powstał 1 godzina i 13 minut temu, godzina 02:56 UTC
Wiatr 4 kt od południe
Temperatura -14°C
Wilgotność 100%
Ciśnienie 1030 hPa
Widzialność: 16.1 km
bezchmurnie

METAR: KRCA 120256Z AUTO 19004KT 10SM CLR M14/M14 A3042 RMK AO2 SLP380 T11371139 57025 FZRANO $

czas: 21:09 (04:09 UTC)


TAF: brakujący

Obserwacja i prognoza pogody dla ponad 4000 lotnisk (raport METAR i TAF).

Dostępne stacje oznaczono żółtymi i czerwonymi punktami na mapie.

Najedź kursorem aby zobaczyć nazwę stacji.

Kliknij aby zobaczyć obserwacje i prognozy pogody.

Aby zmienić mapę: kliknij na zielony przycisk z czarnym krzyżykiem, aby powiększyć; na zielony przycisk z myślnikiem, aby pomniejszyć; na zielone strzałki, aby przejść do map sąsiednich.


METAR-TAF: